createdAt,value
2019-05-17T00:00:00.946Z,37.88
2019-05-17T00:02:06.952Z,42.95
2019-05-17T00:04:10.736Z,38.80
2019-05-17T00:06:16.734Z,43.60
2019-05-17T00:08:31.044Z,44.75
2019-05-17T00:10:26.466Z,40.23
2019-05-17T00:12:30.238Z,40.05
2019-05-17T00:14:33.957Z,42.25
2019-05-17T00:16:37.677Z,40.17
2019-05-17T00:18:41.391Z,41.10
2019-05-17T00:20:46.508Z,43.10
2019-05-17T00:22:50.497Z,41.70
2019-05-17T00:24:56.678Z,41.25
2019-05-17T00:26:59.611Z,39.15
2019-05-17T00:29:03.488Z,40.45
2019-05-17T00:31:07.204Z,39.10
2019-05-17T00:33:10.913Z,37.65
2019-05-17T00:35:14.625Z,40.67
2019-05-17T00:37:18.430Z,41.42
2019-05-17T00:39:22.133Z,41.55
2019-05-17T00:41:26.957Z,41.00
2019-05-17T00:43:30.846Z,44.03
2019-05-17T00:45:34.569Z,37.00
2019-05-17T00:47:38.297Z,45.03
2019-05-17T00:49:41.994Z,37.42
2019-05-17T00:51:47.408Z,42.73
2019-05-17T00:53:51.166Z,40.38
2019-05-17T00:55:57.179Z,42.93
2019-05-17T00:58:00.275Z,41.85
2019-05-17T01:00:08.270Z,38.58
2019-05-17T01:02:11.216Z,43.78
2019-05-17T01:04:17.122Z,37.85
2019-05-17T01:06:20.565Z,42.35
2019-05-17T01:08:26.423Z,44.05
2019-05-17T01:10:31.592Z,45.60
2019-05-17T01:12:36.586Z,39.45
2019-05-17T01:14:40.471Z,38.55
2019-05-17T01:16:44.179Z,42.03
2019-05-17T01:18:47.917Z,41.53
2019-05-17T01:20:51.686Z,39.60
2019-05-17T01:22:56.679Z,41.13
2019-05-17T01:25:00.513Z,40.98
2019-05-17T01:27:06.394Z,40.28
2019-05-17T01:29:09.694Z,39.95
2019-05-17T01:31:13.399Z,41.80
2019-05-17T01:33:17.355Z,44.85
2019-05-17T01:35:21.167Z,45.52
2019-05-17T01:37:24.934Z,42.80
2019-05-17T01:39:28.641Z,43.17
2019-05-17T01:41:32.345Z,39.55
2019-05-17T01:43:36.764Z,38.00
2019-05-17T01:45:40.766Z,42.33
2019-05-17T01:47:44.541Z,39.95
2019-05-17T01:49:48.389Z,39.25
2019-05-17T01:51:52.089Z,41.65
2019-05-17T01:53:57.320Z,42.30
2019-05-17T01:56:01.273Z,43.33
2019-05-17T01:58:07.178Z,41.45
2019-05-17T02:00:12.353Z,44.18
2019-05-17T02:02:17.697Z,41.42
2019-05-17T02:04:21.435Z,40.55
2019-05-17T02:06:27.060Z,43.08
2019-05-17T02:08:30.573Z,40.17
2019-05-17T02:10:34.318Z,39.40
2019-05-17T02:12:38.036Z,44.77
2019-05-17T02:14:41.765Z,41.15
2019-05-17T02:16:46.797Z,39.90
2019-05-17T02:18:50.710Z,43.98
2019-05-17T02:20:56.877Z,46.90
2019-05-17T02:22:59.824Z,48.73
2019-05-17T02:25:07.245Z,48.08
2019-05-17T02:27:10.745Z,41.85
2019-05-17T02:29:14.495Z,41.08
2019-05-17T02:31:18.394Z,45.92
2019-05-17T02:33:23.575Z,47.13
2019-05-17T02:35:27.574Z,46.05
2019-05-17T02:37:33.383Z,41.65
2019-05-17T02:39:52.490Z,43.50
2019-05-17T02:41:43.053Z,44.33
2019-05-17T02:43:47.066Z,43.63
2019-05-17T02:45:52.774Z,41.13
2019-05-17T02:47:56.200Z,44.45
2019-05-17T02:49:59.887Z,44.88
2019-05-17T02:52:03.639Z,43.95
2019-05-17T02:54:07.384Z,43.23
2019-05-17T02:56:13.463Z,41.53
2019-05-17T02:58:16.477Z,40.95
2019-05-17T03:00:23.784Z,48.83
2019-05-17T03:02:27.977Z,46.08
2019-05-17T03:04:32.670Z,41.05
2019-05-17T03:06:36.641Z,44.67
2019-05-17T03:08:42.907Z,43.38
2019-05-17T03:10:45.733Z,39.25
2019-05-17T03:12:52.713Z,42.90
2019-05-17T03:14:54.799Z,41.65
2019-05-17T03:16:58.589Z,49.58
2019-05-17T03:19:04.149Z,38.80
2019-05-17T03:21:07.686Z,42.50
2019-05-17T03:23:12.655Z,40.17
2019-05-17T03:25:16.582Z,42.08
2019-05-17T03:27:23.194Z,41.68
2019-05-17T03:29:25.779Z,43.68
2019-05-17T03:31:36.015Z,44.67
2019-05-17T03:33:36.552Z,49.42
2019-05-17T03:35:45.538Z,48.20
2019-05-17T03:37:46.181Z,49.48
2019-05-17T03:39:53.407Z,46.48
2019-05-17T03:41:55.393Z,58.35
2019-05-17T03:44:02.902Z,62.67
2019-05-17T03:46:04.566Z,51.30
2019-05-17T03:48:08.321Z,51.85
2019-05-17T03:50:13.415Z,49.70
2019-05-17T03:52:17.621Z,50.67
2019-05-17T03:54:22.613Z,56.28
2019-05-17T03:56:26.535Z,50.75
2019-05-17T03:58:33.263Z,51.90
2019-05-17T04:00:35.794Z,46.70
2019-05-17T04:02:39.483Z,47.45
2019-05-17T04:04:43.289Z,51.13
2019-05-17T04:06:47.029Z,48.75
2019-05-17T04:08:52.758Z,61.95
2019-05-17T04:10:56.176Z,55.63
2019-05-17T04:12:59.892Z,57.43
2019-05-17T04:15:04.303Z,59.03
2019-05-17T04:17:08.041Z,59.03
2019-05-17T04:19:14.017Z,56.77
2019-05-17T04:21:17.210Z,66.57
2019-05-17T04:23:23.196Z,65.28
2019-05-17T04:25:26.324Z,62.55
2019-05-17T04:27:32.438Z,69.82
2019-05-17T04:29:35.414Z,70.85
2019-05-17T04:31:39.119Z,64.40
2019-05-17T04:33:43.290Z,67.50
2019-05-17T04:35:47.070Z,70.62
2019-05-17T04:37:53.060Z,70.50
2019-05-17T04:39:56.345Z,72.67
2019-05-17T04:42:03.382Z,67.90
2019-05-17T04:44:05.542Z,68.17
2019-05-17T04:46:09.254Z,77.53
2019-05-17T04:48:13.441Z,75.47
2019-05-17T04:50:17.520Z,76.12
2019-05-17T04:52:22.870Z,76.97
2019-05-17T04:54:26.748Z,77.78
2019-05-17T04:56:33.025Z,74.65
2019-05-17T04:58:35.863Z,102.95
2019-05-17T05:00:42.787Z,96.97
2019-05-17T05:02:45.132Z,81.85
2019-05-17T05:04:48.854Z,87.20
2019-05-17T05:06:52.662Z,88.72
2019-05-17T05:08:56.741Z,103.42
2019-05-17T05:11:03.669Z,91.95
2019-05-17T05:13:05.909Z,90.53
2019-05-17T05:15:12.202Z,89.05
2019-05-17T05:17:15.329Z,78.07
2019-05-17T05:19:19.036Z,80.57
2019-05-17T05:21:23.191Z,79.42
2019-05-17T05:23:26.968Z,79.47
2019-05-17T05:25:32.362Z,79.95
2019-05-17T05:27:36.130Z,84.13
2019-05-17T05:29:41.583Z,79.22
2019-05-17T05:31:45.328Z,84.03
2019-05-17T05:33:49.050Z,79.47
2019-05-17T05:35:52.759Z,86.97
2019-05-17T05:37:56.553Z,83.52
2019-05-17T05:40:02.055Z,79.77
2019-05-17T05:42:10.310Z,77.05
2019-05-17T05:44:12.224Z,77.72
2019-05-17T05:46:16.113Z,74.32
2019-05-17T05:48:21.710Z,73.47
2019-05-17T05:50:25.220Z,68.28
2019-05-17T05:52:28.996Z,63.83
2019-05-17T05:54:32.749Z,63.60
2019-05-17T05:56:36.462Z,59.73
2019-05-17T05:58:42.677Z,61.02
2019-05-17T06:00:45.647Z,61.30
2019-05-17T06:02:49.393Z,58.75
2019-05-17T06:04:53.145Z,59.70
2019-05-17T06:06:56.859Z,58.00
2019-05-17T06:09:02.684Z,53.70
2019-05-17T06:11:06.033Z,54.15
2019-05-17T06:13:09.796Z,53.83
2019-05-17T06:15:13.718Z,46.98
2019-05-17T06:17:17.439Z,53.40
2019-05-17T06:19:22.450Z,48.20
2019-05-17T06:21:26.384Z,47.55
2019-05-17T06:23:31.590Z,49.50
2019-05-17T06:25:35.494Z,55.40
2019-05-17T06:27:41.366Z,60.08
2019-05-17T06:29:44.607Z,58.15
2019-05-17T06:31:48.409Z,58.15
2019-05-17T06:33:52.474Z,67.72
2019-05-17T06:35:56.278Z,57.93
2019-05-17T06:38:01.914Z,58.75
2019-05-17T06:40:06.918Z,63.17
2019-05-17T06:42:12.037Z,76.67
2019-05-17T06:44:15.921Z,65.72
2019-05-17T06:46:21.905Z,77.22
2019-05-17T06:48:25.101Z,67.32
2019-05-17T06:50:28.874Z,61.55
2019-05-17T06:52:32.751Z,53.73
2019-05-17T06:54:36.484Z,64.30
2019-05-17T06:56:41.835Z,81.60
2019-05-17T06:58:45.778Z,58.50
2019-05-17T07:00:49.827Z,67.87
2019-05-17T07:02:53.689Z,68.97
2019-05-17T07:05:01.341Z,66.40
2019-05-17T07:07:22.612Z,67.80
2019-05-17T07:09:26.337Z,54.50
2019-05-17T07:11:30.393Z,66.92
2019-05-17T07:13:34.196Z,52.85
2019-05-17T07:15:44.696Z,52.17
2019-05-17T07:17:43.294Z,58.60
2019-05-17T07:19:47.038Z,54.53
2019-05-17T07:21:50.759Z,56.23
2019-05-17T07:23:54.560Z,58.78
2019-05-17T07:25:59.621Z,52.58
2019-05-17T07:28:03.551Z,54.42
2019-05-17T07:30:09.971Z,58.05
2019-05-17T07:32:13.899Z,57.30
2019-05-17T07:34:19.843Z,51.37
2019-05-17T07:36:23.041Z,62.43
2019-05-17T07:38:26.811Z,52.95
2019-05-17T07:40:30.590Z,50.17
2019-05-17T07:42:34.426Z,51.85
2019-05-17T07:44:40.153Z,55.67
2019-05-17T07:46:43.523Z,51.58
2019-05-17T07:48:49.613Z,51.55
2019-05-17T07:50:52.602Z,55.10
2019-05-17T07:52:56.376Z,48.28
2019-05-17T07:55:02.414Z,51.90
2019-05-17T07:57:05.488Z,50.35
2019-05-17T07:59:09.591Z,53.73
2019-05-17T08:01:13.377Z,43.68
2019-05-17T08:03:17.169Z,47.53
2019-05-17T08:05:21.825Z,48.40
2019-05-17T08:07:25.573Z,54.35
2019-05-17T08:09:30.021Z,50.78
2019-05-17T08:11:33.988Z,52.58
2019-05-17T08:13:39.714Z,48.13
2019-05-17T08:15:43.133Z,30.60
2019-05-17T08:17:46.871Z,37.65
2019-05-17T08:19:50.667Z,32.10
2019-05-17T08:21:54.375Z,31.50
2019-05-17T08:24:00.110Z,36.42
2019-05-17T08:26:03.977Z,26.40
2019-05-17T08:28:10.655Z,23.05
2019-05-17T08:30:13.655Z,36.50
2019-05-17T08:32:17.371Z,45.05
2019-05-17T08:34:21.123Z,32.83
2019-05-17T08:36:24.848Z,33.05
2019-05-17T08:38:30.539Z,33.38
2019-05-17T08:40:34.036Z,33.58
2019-05-17T08:42:40.370Z,30.88
2019-05-17T08:44:43.218Z,32.75
2019-05-17T08:46:46.923Z,31.45
2019-05-17T08:48:50.657Z,26.33
2019-05-17T08:50:54.464Z,27.30
2019-05-17T08:52:59.932Z,23.22
2019-05-17T08:55:05.110Z,27.35
2019-05-17T08:57:09.560Z,26.62
2019-05-17T08:59:13.440Z,38.38
2019-05-17T09:01:19.404Z,32.45
2019-05-17T09:03:22.568Z,30.95
2019-05-17T09:05:26.112Z,25.30
2019-05-17T09:07:29.691Z,26.65
2019-05-17T09:09:33.301Z,24.90
2019-05-17T09:11:36.888Z,34.88
2019-05-17T09:13:54.355Z,34.10
2019-05-17T09:15:45.690Z,34.78
2019-05-17T09:17:49.817Z,23.98
2019-05-17T09:19:54.445Z,33.13
2019-05-17T09:21:59.840Z,27.27
2019-05-17T09:24:03.549Z,25.75
2019-05-17T09:26:07.185Z,24.47
2019-05-17T09:28:10.845Z,23.67
2019-05-17T09:30:15.067Z,28.17
2019-05-17T09:32:20.189Z,26.62
2019-05-17T09:34:23.943Z,22.45
2019-05-17T09:36:30.108Z,20.92
2019-05-17T09:38:32.774Z,21.35
2019-05-17T09:40:36.420Z,22.87
2019-05-17T09:42:41.211Z,22.32
2019-05-17T09:44:45.085Z,20.72
2019-05-17T09:46:50.397Z,25.50
2019-05-17T09:48:53.905Z,20.32
2019-05-17T09:50:59.748Z,19.25
2019-05-17T09:53:02.894Z,18.50
2019-05-17T09:55:06.823Z,21.87
2019-05-17T09:57:10.445Z,22.07
2019-05-17T09:59:14.021Z,21.00
2019-05-17T10:01:19.551Z,25.70
2019-05-17T10:03:24.149Z,20.10
2019-05-17T10:05:30.724Z,19.48
2019-05-17T10:07:33.192Z,19.42
2019-05-17T10:09:36.761Z,21.70
2019-05-17T10:11:40.433Z,20.23
2019-05-17T10:13:44.017Z,25.08
2019-05-17T10:15:49.878Z,25.57
2019-05-17T10:17:52.917Z,25.50
2019-05-17T10:19:56.497Z,27.85
2019-05-17T10:22:00.084Z,28.62
2019-05-17T10:24:03.728Z,36.88
2019-05-17T10:26:07.374Z,70.65
2019-05-17T10:28:10.989Z,45.67
2019-05-17T10:30:14.833Z,26.80
2019-05-17T10:32:20.531Z,29.07
2019-05-17T10:34:23.673Z,76.05
2019-05-17T10:36:29.284Z,42.53
2019-05-17T10:38:32.503Z,41.35
2019-05-17T10:40:36.073Z,26.73
2019-05-17T10:44:47.578Z,31.40
2019-05-17T10:46:48.722Z,32.98
2019-05-17T10:48:52.333Z,29.32
2019-05-17T10:50:55.901Z,52.78
2019-05-17T10:55:10.482Z,33.55
2019-05-17T10:57:13.792Z,31.12
2019-05-17T10:59:17.389Z,27.10
2019-05-17T11:01:21.108Z,28.12
2019-05-17T11:03:24.757Z,25.62
2019-05-17T11:05:30.609Z,26.20
2019-05-17T11:07:33.553Z,30.05
2019-05-17T11:09:39.869Z,32.03
2019-05-17T11:11:42.454Z,27.90
2019-05-17T11:13:46.057Z,26.33
2019-05-17T11:15:49.646Z,28.87
2019-05-17T11:17:53.244Z,28.50
2019-05-17T11:19:56.817Z,33.13
2019-05-17T11:22:00.489Z,32.00
2019-05-17T11:24:04.143Z,31.23
2019-05-17T11:26:07.817Z,26.70
2019-05-17T11:28:11.489Z,30.43
2019-05-17T11:30:15.749Z,23.62
2019-05-17T11:32:19.397Z,25.17
2019-05-17T11:34:25.473Z,23.12
2019-05-17T11:36:28.363Z,25.45
2019-05-17T11:38:31.962Z,28.38
2019-05-17T11:40:35.609Z,32.60
2019-05-17T11:42:39.253Z,36.15
2019-05-17T11:44:42.859Z,41.55
2019-05-17T11:46:46.443Z,48.42
2019-05-17T11:48:50.021Z,41.75
2019-05-17T11:50:55.220Z,34.03
2019-05-17T11:52:58.882Z,33.83
2019-05-17T11:55:02.551Z,37.78
2019-05-17T11:57:06.228Z,40.92
2019-05-17T11:59:09.834Z,35.63
2019-05-17T12:01:13.451Z,32.55
2019-05-17T12:03:17.025Z,38.50
2019-05-17T12:05:20.636Z,62.50
2019-05-17T12:07:24.197Z,45.85
2019-05-17T12:11:32.251Z,42.50
2019-05-17T12:13:35.832Z,34.67
2019-05-17T12:15:44.837Z,29.02
2019-05-17T12:17:44.668Z,39.75
2019-05-17T12:19:48.265Z,37.28
2019-05-17T12:21:51.852Z,27.98
2019-05-17T12:23:55.506Z,39.45
2019-05-17T12:25:59.095Z,30.60
2019-05-17T12:28:02.811Z,32.70
2019-05-17T12:30:08.215Z,41.40
2019-05-17T12:32:16.655Z,29.87
2019-05-17T12:34:17.180Z,29.87
2019-05-17T12:36:20.965Z,37.75
2019-05-17T12:38:24.659Z,36.40
2019-05-17T12:40:28.329Z,28.55
2019-05-17T12:42:32.106Z,27.60
2019-05-17T12:44:37.257Z,38.23
2019-05-17T12:46:41.114Z,26.60
2019-05-17T12:48:44.711Z,25.15
2019-05-17T12:50:48.304Z,29.77
2019-05-17T12:52:51.870Z,34.73
2019-05-17T12:54:55.476Z,31.45
2019-05-17T12:56:59.062Z,26.15
2019-05-17T12:59:02.678Z,29.40
2019-05-17T13:01:06.224Z,28.95
2019-05-17T13:03:09.840Z,26.40
2019-05-17T13:05:13.791Z,26.75
2019-05-17T13:07:17.421Z,24.45
2019-05-17T13:09:20.998Z,25.95
2019-05-17T13:11:24.709Z,25.95
2019-05-17T13:13:28.289Z,25.12
2019-05-17T13:15:31.974Z,26.85
2019-05-17T13:17:35.563Z,25.65
2019-05-17T13:19:39.201Z,29.23
2019-05-17T13:21:42.808Z,27.22
2019-05-17T13:23:46.378Z,32.05
2019-05-17T13:27:52.803Z,28.32
2019-05-17T13:29:56.409Z,36.83
2019-05-17T13:32:00.050Z,27.30
2019-05-17T13:34:03.622Z,26.82
2019-05-17T13:36:07.266Z,27.80
2019-05-17T13:38:10.843Z,31.93
2019-05-17T13:40:14.877Z,25.05
2019-05-17T13:42:18.453Z,24.92
2019-05-17T13:44:22.139Z,25.40
2019-05-17T13:46:33.155Z,23.35
2019-05-17T13:48:31.019Z,24.45
2019-05-17T13:50:34.638Z,30.08
2019-05-17T13:52:38.220Z,31.77
2019-05-17T13:54:41.900Z,32.63
2019-05-17T13:56:45.473Z,30.65
2019-05-17T13:58:49.056Z,31.77
2019-05-17T14:00:52.825Z,28.98
2019-05-17T14:02:56.462Z,30.50
2019-05-17T14:05:00.107Z,23.55
2019-05-17T14:07:03.703Z,28.80
2019-05-17T14:09:08.037Z,25.77
2019-05-17T14:11:11.681Z,25.95
2019-05-17T14:13:15.359Z,29.27
2019-05-17T14:15:19.375Z,25.40
2019-05-17T14:17:22.956Z,28.65
2019-05-17T14:19:26.534Z,28.23
2019-05-17T14:21:30.130Z,31.55
2019-05-17T14:23:33.734Z,27.35
2019-05-17T14:25:37.886Z,27.32
2019-05-17T14:27:41.794Z,26.12
2019-05-17T14:29:45.469Z,21.30
2019-05-17T14:31:49.041Z,30.45
2019-05-17T14:33:52.619Z,24.37
2019-05-17T14:35:56.203Z,25.48
2019-05-17T14:37:59.788Z,28.20
2019-05-17T14:40:04.907Z,26.05
2019-05-17T14:42:08.507Z,26.35
2019-05-17T14:44:12.264Z,24.95
2019-05-17T14:46:15.842Z,24.67
2019-05-17T14:48:19.453Z,20.77
2019-05-17T14:50:23.082Z,30.65
2019-05-17T14:52:26.803Z,27.25
2019-05-17T14:54:30.434Z,22.37
2019-05-17T14:56:34.010Z,31.33
2019-05-17T14:58:37.701Z,21.17
2019-05-17T15:00:41.333Z,17.35
2019-05-17T15:02:44.939Z,20.37
2019-05-17T15:04:48.589Z,23.25
2019-05-17T15:06:52.165Z,23.22
2019-05-17T15:08:55.761Z,21.97
2019-05-17T15:10:59.422Z,20.08
2019-05-17T15:13:03.030Z,20.60
2019-05-17T15:15:07.394Z,20.05
2019-05-17T15:17:11.085Z,20.25
2019-05-17T15:19:14.669Z,20.00
2019-05-17T15:21:18.251Z,34.78
2019-05-17T15:23:21.899Z,21.65
2019-05-17T15:25:25.576Z,24.12
2019-05-17T15:27:29.149Z,22.93
2019-05-17T15:29:32.725Z,21.27
2019-05-17T15:31:36.389Z,26.55
2019-05-17T15:33:39.962Z,23.47
2019-05-17T15:35:43.583Z,21.17
2019-05-17T15:37:47.136Z,20.95
2019-05-17T15:39:50.821Z,25.50
2019-05-17T15:41:54.459Z,23.02
2019-05-17T15:43:58.044Z,22.15
2019-05-17T15:46:01.752Z,22.10
2019-05-17T15:48:05.482Z,23.18
2019-05-17T15:50:09.994Z,21.50
2019-05-17T15:52:13.602Z,20.45
2019-05-17T15:54:17.159Z,20.90
2019-05-17T15:56:20.898Z,22.80
2019-05-17T15:58:24.541Z,24.60
2019-05-17T16:00:28.156Z,21.97
2019-05-17T16:02:31.759Z,26.97
2019-05-17T16:04:35.406Z,24.55
2019-05-17T16:06:39.106Z,25.15
2019-05-17T16:08:42.731Z,20.48
2019-05-17T16:10:46.481Z,19.60
2019-05-17T16:13:01.506Z,19.37
2019-05-17T16:14:55.318Z,19.98
2019-05-17T16:16:58.887Z,23.70
2019-05-17T16:19:02.486Z,26.45
2019-05-17T16:21:06.058Z,23.62
2019-05-17T16:23:09.679Z,19.07
2019-05-17T16:25:13.608Z,23.18
2019-05-17T16:27:17.239Z,21.95
2019-05-17T16:29:20.895Z,21.17
2019-05-17T16:31:24.532Z,19.05
2019-05-17T16:33:28.201Z,20.95
2019-05-17T16:35:33.490Z,22.02
2019-05-17T16:37:37.087Z,18.23
2019-05-17T16:39:40.734Z,19.05
2019-05-17T16:41:44.308Z,27.42
2019-05-17T16:43:47.910Z,21.85
2019-05-17T16:45:51.523Z,21.35
2019-05-17T16:47:56.782Z,21.25
2019-05-17T16:50:00.427Z,27.62
2019-05-17T16:52:04.473Z,20.57
2019-05-17T16:54:08.200Z,27.17
2019-05-17T16:56:11.840Z,26.15
2019-05-17T16:58:15.539Z,22.40
2019-05-17T17:00:31.255Z,22.60
2019-05-17T17:02:34.860Z,22.13
2019-05-17T17:04:38.462Z,22.60
2019-05-17T17:06:42.086Z,17.67
2019-05-17T17:08:45.766Z,18.02
2019-05-17T17:10:49.408Z,20.52
2019-05-17T17:12:53.107Z,20.45
2019-05-17T17:14:56.682Z,20.65
2019-05-17T17:17:00.334Z,23.40
2019-05-17T17:19:04.009Z,20.10
2019-05-17T17:21:07.729Z,23.98
2019-05-17T17:23:11.421Z,24.25
2019-05-17T17:25:15.313Z,24.98
2019-05-17T17:27:18.971Z,36.00
2019-05-17T17:29:22.617Z,24.35
2019-05-17T17:31:26.337Z,22.17
2019-05-17T17:33:29.953Z,25.95
2019-05-17T17:35:33.628Z,23.25
2019-05-17T17:37:37.200Z,25.43
2019-05-17T17:39:40.805Z,23.77
2019-05-17T17:41:44.447Z,24.82
2019-05-17T17:43:58.219Z,27.87
2019-05-17T17:45:53.391Z,27.05
2019-05-17T17:47:56.985Z,38.98
2019-05-17T17:50:00.557Z,32.80
2019-05-17T17:52:04.236Z,30.70
2019-05-17T17:54:07.948Z,29.70
2019-05-17T17:56:13.515Z,38.30
2019-05-17T17:58:16.853Z,30.27
2019-05-17T18:00:22.297Z,36.48
2019-05-17T18:02:26.175Z,33.55
2019-05-17T18:04:29.725Z,37.98
2019-05-17T18:06:33.342Z,39.15
2019-05-17T18:08:36.915Z,37.73
2019-05-17T18:10:40.889Z,32.75
2019-05-17T18:12:44.472Z,35.10
2019-05-17T18:14:48.149Z,34.65
2019-05-17T18:16:51.719Z,38.63
2019-05-17T18:18:55.296Z,35.95
2019-05-17T18:20:58.899Z,38.55
2019-05-17T18:23:02.477Z,51.58
2019-05-17T18:25:06.786Z,51.73
2019-05-17T18:27:10.373Z,41.33
2019-05-17T18:31:16.902Z,39.70
2019-05-17T18:33:20.555Z,32.80
2019-05-17T18:35:24.293Z,39.00
2019-05-17T18:37:27.933Z,40.15
2019-05-17T18:39:31.626Z,35.03
2019-05-17T18:41:35.636Z,31.75
2019-05-17T18:43:39.472Z,35.55
2019-05-17T18:45:43.202Z,46.58
2019-05-17T18:47:50.235Z,42.45
2019-05-17T18:49:52.121Z,46.68
2019-05-17T18:51:55.836Z,46.13
2019-05-17T18:54:00.853Z,37.75
2019-05-17T18:56:04.708Z,44.18
2019-05-17T18:58:08.353Z,50.95
2019-05-17T19:00:12.272Z,48.48
2019-05-17T19:02:16.008Z,44.73
2019-05-17T19:04:19.658Z,58.87
2019-05-17T19:06:23.306Z,58.98
2019-05-17T19:08:26.906Z,48.85
2019-05-17T19:10:30.588Z,45.48
2019-05-17T19:12:34.176Z,50.00
2019-05-17T19:14:43.060Z,43.35
2019-05-17T19:16:43.035Z,46.40
2019-05-17T19:18:49.461Z,50.40
2019-05-17T19:20:53.139Z,47.15
2019-05-17T19:22:56.717Z,52.17
2019-05-17T19:27:03.201Z,56.90
2019-05-17T19:29:06.858Z,53.08
2019-05-17T19:31:10.470Z,53.80
2019-05-17T19:33:14.070Z,56.50
2019-05-17T19:35:17.880Z,52.80
2019-05-17T19:37:21.499Z,62.50
2019-05-17T19:39:25.127Z,51.10
2019-05-17T19:43:31.514Z,44.95
2019-05-17T19:45:35.077Z,56.25
2019-05-17T19:49:41.536Z,53.17
2019-05-17T19:51:45.100Z,51.45
2019-05-17T19:55:51.538Z,57.33
2019-05-17T19:57:55.117Z,63.33
2019-05-17T20:02:01.523Z,60.58
2019-05-17T20:06:08.041Z,54.83
2019-05-17T20:08:11.753Z,53.08
2019-05-17T20:10:15.646Z,50.85
2019-05-17T20:12:19.226Z,54.10
2019-05-17T20:14:22.797Z,53.00
2019-05-17T20:18:29.206Z,56.73
2019-05-17T20:22:35.730Z,61.15
2019-05-17T20:24:39.305Z,60.80
2019-05-17T20:26:42.919Z,63.20
2019-05-17T20:28:52.707Z,66.17
2019-05-17T20:30:56.370Z,59.33
2019-05-17T20:33:00.059Z,59.58
2019-05-17T20:35:04.793Z,64.17
2019-05-17T20:37:08.390Z,66.85
2019-05-17T20:39:12.109Z,58.70
2019-05-17T20:41:15.709Z,60.00
2019-05-17T20:45:32.743Z,56.05
2019-05-17T20:47:27.509Z,58.17
2019-05-17T20:49:31.155Z,63.92
2019-05-17T20:51:34.762Z,57.78
2019-05-17T20:53:38.339Z,59.33
2019-05-17T20:55:42.804Z,65.72
2019-05-17T20:57:46.373Z,58.20
2019-05-17T21:01:52.878Z,60.23
2019-05-17T21:03:56.477Z,61.30
2019-05-17T21:06:00.164Z,57.62
2019-05-17T21:08:04.216Z,58.68
2019-05-17T21:10:08.149Z,59.20
2019-05-17T21:12:11.788Z,60.58
2019-05-17T21:14:15.386Z,60.75
2019-05-17T21:16:19.041Z,62.60
2019-05-17T21:18:22.732Z,63.20
2019-05-17T21:20:26.314Z,59.95
2019-05-17T21:24:32.709Z,57.83
2019-05-17T21:26:36.279Z,58.15
2019-05-17T21:28:39.854Z,60.65
2019-05-17T21:30:43.462Z,53.52
2019-05-17T21:32:47.044Z,53.17
2019-05-17T21:34:50.626Z,56.30
2019-05-17T21:36:54.237Z,53.42
2019-05-17T21:38:57.831Z,51.08
2019-05-17T21:41:01.409Z,62.38
2019-05-17T21:43:05.089Z,48.20
2019-05-17T21:45:09.107Z,53.78
2019-05-17T21:47:12.687Z,53.80
2019-05-17T21:49:16.268Z,52.75
2019-05-17T21:51:19.841Z,48.75
2019-05-17T21:53:23.458Z,52.62
2019-05-17T21:55:27.080Z,51.50
2019-05-17T21:57:30.654Z,48.85
2019-05-17T22:01:37.237Z,54.40
2019-05-17T22:03:41.350Z,56.48
2019-05-17T22:05:45.319Z,53.58
2019-05-17T22:07:48.977Z,47.80
2019-05-17T22:09:52.848Z,46.05
2019-05-17T22:12:02.519Z,57.75
2019-05-17T22:14:06.096Z,50.78
2019-05-17T22:18:14.306Z,48.30
2019-05-17T22:20:17.977Z,48.78
2019-05-17T22:24:24.451Z,55.28
2019-05-17T22:28:31.129Z,49.83
2019-05-17T22:30:34.702Z,48.68
2019-05-17T22:34:41.138Z,54.63
2019-05-17T22:38:47.561Z,54.15
2019-05-17T22:42:53.987Z,48.50
2019-05-17T22:47:00.377Z,46.30
2019-05-17T22:51:06.775Z,47.25
2019-05-17T22:55:13.343Z,51.75
2019-05-17T22:57:16.927Z,47.90
2019-05-17T23:01:23.562Z,52.33
2019-05-17T23:05:30.077Z,46.60
2019-05-17T23:09:36.481Z,45.08
2019-05-17T23:13:42.895Z,43.95
2019-05-17T23:18:09.089Z,43.85
2019-05-17T23:22:15.612Z,48.15
2019-05-17T23:26:22.058Z,51.13
2019-05-17T23:30:28.467Z,48.63
2019-05-17T23:34:34.841Z,47.38
2019-05-17T23:38:41.247Z,52.73
2019-05-17T23:42:47.760Z,50.23
2019-05-17T23:47:06.112Z,52.67
2019-05-17T23:48:59.374Z,45.80
2019-05-17T23:53:05.782Z,51.40
2019-05-17T23:57:12.568Z,48.65
